CheckWX is a tool to help pilots better visualize weather data.  It is not intended as a substitute for an official pre-flight weather briefing.

05:10:50 UTC

KGCK METAR
Garden City Regional Airport
Garden City, Kansas, USA
Current

17 mins ago

KGCK 240454Z AUTO 30012KT 10SM CLR M09/M13 A3010 RMK AO2 SLP225 T10941128 $
Observed
Feb-24 @ 04:54 UTC
Wind
  • 300° at 12 KTS
Visibility
10 SM
Flight Rules
VFR
Cloud Levels
  • Clear skies
Temperature
-9°C / 16°F
Dewpoint
-13°C / 9°F
Humidity
73%
Altimeter
30.1" Hg
Pressure
1022.5 hPa
Previous

1 hour ago

KGCK 240354Z AUTO 28010KT 10SM CLR M08/M12 A3008 RMK AO2 SLP216 T10831122 $
Observed
Feb-24 @ 03:54 UTC
Wind
  • 280° at 10 KTS
Visibility
10 SM
Flight Rules
VFR
Cloud Levels
  • Clear skies
Temperature
-8°C / 18°F
Dewpoint
-12°C / 10°F
Humidity
73%
Altimeter
30.08" Hg
Pressure
1021.6 hPa
Previous

2 hours ago

KGCK 240254Z 32014KT 10SM CLR M06/M10 A3003 RMK AO2 SLP195 T10561100 51034 $
Observed
Feb-24 @ 02:54 UTC
Wind
  • 320° at 14 KTS
Visibility
10 SM
Flight Rules
VFR
Cloud Levels
  • Clear skies
Temperature
-6°C / 21°F
Dewpoint
-10°C / 14°F
Humidity
74%
Altimeter
30.03" Hg
Pressure
1019.5 hPa